^^
Station Historical Data
Daily Summary for February 23, 2017 Units:  Metric    English   Both
« Previous Day
Next Day »
Daily Weekly Monthly Yearly Custom
  High: Low: Average:
Temperature: 34.7 °C 18.7 °C 26.6 °C
Dew Point: 10.5 °C 1 °C 7.3 °C
Humidity: 55% 12% 33%
Wind Speed: 28.8km/h 0km/h 6.1km/h
Wind Gust: 33.8km/h - -
Wind- - South
Pressure: 1008 hPa 1003.6 hPa -
Precipitation: 0 mm    
Historical Graphs
 
 
Tabular Data for February 23, 2017
Time Temperature Dew Point Pressure Wind Wind Speed Wind Gust Humidity Rainfall Rate (Hourly) solar Conditions
00:05 25 °C 9.3 °C 1008 hPa SSW 11.1 km/h 14.5 km/h 37% 0 mm 0.0 W/m2
00:10 24.9 °C 9.6 °C 1008 hPa SSW 11.1 km/h 14.5 km/h 38% 0 mm 0.0 W/m2
00:15 25 °C 9.3 °C 1008 hPa SSW 9.7 km/h 14.5 km/h 37% 0 mm 0.0 W/m2
00:20 24.9 °C 9.2 °C 1008 hPa SSW 14.3 km/h 14.5 km/h 37% 0 mm 0.0 W/m2
00:25 24.9 °C 9.2 °C 1008 hPa SSW 14.3 km/h 14.5 km/h 37% 0 mm 0.0 W/m2
00:30 24.9 °C 9.2 °C 1008 hPa SSW 14.3 km/h 16.1 km/h 37% 0 mm 0.0 W/m2
00:35 24.9 °C 9.2 °C 1007.7 hPa SSW 11.1 km/h 14.5 km/h 37% 0 mm 0.0 W/m2
00:46 24.8 °C 9.1 °C 1008 hPa SSW 14.3 km/h 19.3 km/h 37% 0 mm 0.0 W/m2
00:51 24.8 °C 9.5 °C 1008 hPa SSW 13 km/h 16.1 km/h 38% 0 mm 0.0 W/m2
01:03 24.7 °C 9.4 °C 1008 hPa SSW 16.3 km/h 19.3 km/h 38% 0 mm 0.0 W/m2
01:08 24.6 °C 9.3 °C 1008 hPa SSW 16.3 km/h 17.7 km/h 38% 0 mm 0.0 W/m2
01:20 24.4 °C 9.5 °C 1007.7 hPa SSW 13 km/h 19.3 km/h 39% 0 mm 0.0 W/m2
01:30 24.2 °C 9.4 °C 1007.7 hPa SSW 14.3 km/h 16.1 km/h 39% 0 mm 0.0 W/m2
01:37 24.1 °C 9.3 °C 1007.3 hPa SSW 9.7 km/h 14.5 km/h 39% 0 mm 0.0 W/m2
01:46 23.9 °C 9.1 °C 1007.3 hPa SSW 11.1 km/h 11.3 km/h 39% 0 mm 0.0 W/m2
01:52 23.7 °C 9.3 °C 1007.3 hPa SSW 7.9 km/h 8 km/h 40% 0 mm 0.0 W/m2
01:58 23.6 °C 9.2 °C 1007.3 hPa SSW 4.7 km/h 8 km/h 40% 0 mm 0.0 W/m2
02:04 23.6 °C 9.2 °C 1007.3 hPa SSW 4.7 km/h 8 km/h 40% 0 mm 0.0 W/m2
02:26 23.6 °C 9.2 °C 1007 hPa SSW 9.7 km/h 16.1 km/h 40% 0 mm 0.0 W/m2
02:47 23.2 °C 9.2 °C 1007 hPa SSW 6.4 km/h 9.7 km/h 41% 0 mm 0.0 W/m2
02:58 22.8 °C 9.2 °C 1006.7 hPa Calm     42% 0 mm 0.0 W/m2
03:12 22.4 °C 9.2 °C 1006.7 hPa Calm     43% 0 mm 0.0 W/m2
03:23 22.2 °C 9 °C 1006.7 hPa Calm     43% 0 mm 0.0 W/m2
03:38 21.8 °C 9.3 °C 1006.7 hPa Calm     45% 0 mm 0.0 W/m2
03:52 21.6 °C 9.2 °C 1006.7 hPa Calm     45% 0 mm 0.0 W/m2
03:59 21.4 °C 9 °C 1006.7 hPa Calm     45% 0 mm 0.0 W/m2
04:09 21.1 °C 9 °C 1006.7 hPa Calm     46% 0 mm 0.0 W/m2
04:19 20.6 °C 9.2 °C 1006.7 hPa Calm     48% 0 mm 0.0 W/m2
04:24 20.4 °C 9 °C 1006.7 hPa Calm     48% 0 mm 0.0 W/m2
04:29 20.2 °C 9.1 °C 1006.7 hPa Calm     49% 0 mm 0.0 W/m2
04:35 19.9 °C 9.2 °C 1006.7 hPa Calm     50% 0 mm 0.0 W/m2
04:40 19.8 °C 9.4 °C 1006.3 hPa Calm     51% 0 mm 0.0 W/m2
04:45 19.6 °C 9.2 °C 1006.3 hPa Calm     51% 0 mm 0.0 W/m2
04:50 19.5 °C 9.1 °C 1006.3 hPa Calm     51% 0 mm 0.0 W/m2
04:55 19.4 °C 9.3 °C 1006.3 hPa Calm     52% 0 mm 0.0 W/m2
05:00 19.3 °C 9.5 °C 1006.3 hPa Calm     53% 0 mm 0.0 W/m2
05:05 19.3 °C 9.5 °C 1006.3 hPa Calm     53% 0 mm 0.0 W/m2
05:10 19.3 °C 9.5 °C 1006.3 hPa Calm     53% 0 mm 0.0 W/m2
05:16 19.2 °C 9.4 °C 1006.3 hPa Calm     53% 0 mm 0.0 W/m2
05:21 19.1 °C 9.3 °C 1006.3 hPa Calm     53% 0 mm 0.0 W/m2
05:27 19.1 °C 9.3 °C 1006.3 hPa Calm     53% 0 mm 0.0 W/m2
05:32 19 °C 9.2 °C 1006.3 hPa Calm     53% 0 mm 0.0 W/m2
05:37 19 °C 9.2 °C 1006.3 hPa Calm     53% 0 mm 0.0 W/m2
05:42 19 °C 9.5 °C 1006.3 hPa Calm     54% 0 mm 0.0 W/m2
05:47 18.9 °C 9.4 °C 1006.3 hPa Calm     54% 0 mm 0.0 W/m2
05:57 18.9 °C 9.7 °C 1006.3 hPa Calm     55% 0 mm 0.0 W/m2
06:02 18.8 °C 9.6 °C 1006.3 hPa Calm     55% 0 mm 0.0 W/m2
06:08 18.7 °C 9.2 °C 1006.3 hPa Calm     54% 0 mm 0.0 W/m2
06:13 18.8 °C 9.3 °C 1006.3 hPa Calm     54% 0 mm 0.0 W/m2
06:18 18.8 °C 9.3 °C 1006.3 hPa Calm     54% 0 mm 0.0 W/m2
06:23 18.8 °C 9.3 °C 1006.3 hPa Calm     54% 0 mm 0.0 W/m2
06:28 18.8 °C 9.6 °C 1006.3 hPa Calm     55% 0 mm 0.0 W/m2
06:33 18.8 °C 9.3 °C 1006.3 hPa Calm   1.6 km/h 54% 0 mm 0.0 W/m2
06:39 18.8 °C 9.3 °C 1006.3 hPa Calm     54% 0 mm 5.0 W/m2
06:44 18.8 °C 9.6 °C 1006.7 hPa Calm   1.6 km/h 55% 0 mm 7.0 W/m2
06:49 18.9 °C 9.7 °C 1006.7 hPa Calm     55% 0 mm 9.0 W/m2
06:54 18.9 °C 9.7 °C 1006.7 hPa Calm     55% 0 mm 14.0 W/m2
06:59 19 °C 9.8 °C 1006.7 hPa Calm     55% 0 mm 18.0 W/m2
07:05 19.1 °C 9.6 °C 1006.7 hPa Calm     54% 0 mm 30.0 W/m2
07:11 19.4 °C 9.6 °C 1006.7 hPa Calm     53% 0 mm 44.0 W/m2
07:18 20.1 °C 9.9 °C 1007 hPa Calm     52% 0 mm 76.0 W/m2
07:23 20.4 °C 10.2 °C 1007 hPa Calm     52% 0 mm 91.0 W/m2
07:36 21.4 °C 10.2 °C 1007 hPa Calm     49% 0 mm 137.0 W/m2
08:14 23.7 °C 9.7 °C 1007.3 hPa Calm     41% 0 mm 311.0 W/m2
08:30 24.4 °C 9.5 °C 1007.3 hPa Calm     39% 0 mm 367.0 W/m2
08:50 25 °C 9.7 °C 1007.3 hPa Calm     38% 0 mm 422.0 W/m2
08:55 25.4 °C 9.2 °C 1007.3 hPa Calm     36% 0 mm 459.0 W/m2
09:11 26.2 °C 9.5 °C 1007.7 hPa Calm     35% 0 mm 510.0 W/m2
09:32 27.1 °C 9 °C 1007.7 hPa Calm     32% 0 mm 568.0 W/m2
09:42 27.7 °C 8.5 °C 1007.7 hPa Calm     30% 0 mm 599.0 W/m2
09:47 28.6 °C 8.8 °C 1007.7 hPa Calm     29% 0 mm 633.0 W/m2
09:56 28.9 °C 8 °C 1007.7 hPa Calm     27% 0 mm 649.0 W/m2
10:04 29.4 °C 7.3 °C 1007.7 hPa Calm     25% 0 mm 677.0 W/m2
10:49 31.2 °C 5.6 °C 1007.7 hPa Calm   6.4 km/h 20% 0 mm 793.0 W/m2
10:54 31.4 °C 5.7 °C 1007.3 hPa Calm   4.8 km/h 20% 0 mm 807.0 W/m2
10:59 31.2 °C 4.8 °C 1007.3 hPa Calm   8 km/h 19% 0 mm 817.0 W/m2
11:04 31.2 °C 4.1 °C 1007.3 hPa SSW 3.2 km/h 8 km/h 18% 0 mm 828.0 W/m2
11:10 31.2 °C 4.1 °C 1007.3 hPa Calm     18% 0 mm 838.0 W/m2
11:13 31.5 °C 3.5 °C 1007.3 hPa Calm     17% 0 mm 851.0 W/m2
11:18 31.9 °C 3.8 °C 1007.3 hPa SSW 6.4 km/h 6.4 km/h 17% 0 mm 860.0 W/m2
11:24 32.2 °C 4.1 °C 1007.3 hPa Calm   8 km/h 17% 0 mm 867.0 W/m2
11:29 32.3 °C 4.1 °C 1007.3 hPa South 4.7 km/h 9.7 km/h 17% 0 mm 877.0 W/m2
11:31 32.2 °C 4.1 °C 1007.3 hPa Calm   8 km/h 17% 0 mm 867.0 W/m2
11:36 32.3 °C 4.1 °C 1007.3 hPa South 4.7 km/h 9.7 km/h 17% 0 mm 877.0 W/m2
11:44 31.6 °C 3.6 °C 1007.3 hPa Calm   16.1 km/h 17% 0 mm 900.0 W/m2
11:51 31.6 °C 3.6 °C 1007.3 hPa Calm   16.1 km/h 17% 0 mm 900.0 W/m2
12:06 32.4 °C 4.2 °C 1007 hPa WSW 1.4 km/h 11.3 km/h 17% 0 mm 919.0 W/m2
12:15 32.4 °C 4.2 °C 1007 hPa Calm     17% 0 mm 932.0 W/m2
12:37 32.7 °C 3.6 °C 1006.7 hPa Calm     16% 0 mm 944.0 W/m2
12:53 33.1 °C 3.9 °C 1006.7 hPa Calm   9.7 km/h 16% 0 mm 951.0 W/m2
13:01 33 °C 3.8 °C 1006.7 hPa Calm     16% 0 mm 956.0 W/m2
13:23 33.4 °C 3.2 °C 1006.3 hPa Calm     15% 0 mm 953.0 W/m2
13:39 33.7 °C 3.5 °C 1006.3 hPa WSW 1.4 km/h 4.8 km/h 15% 0 mm 951.0 W/m2
13:47 33.6 °C 3.4 °C 1006 hPa Calm   9.7 km/h 15% 0 mm 954.0 W/m2
14:10 34.1 °C 3.8 °C 1005.6 hPa WSW 1.4 km/h 11.3 km/h 15% 0 mm 928.0 W/m2
14:18 34.2 °C 2.9 °C 1005.6 hPa SW 6.4 km/h 17.7 km/h 14% 0 mm 965.0 W/m2
14:35 34 °C 2.7 °C 1005.6 hPa South 1.4 km/h 6.4 km/h 14% 0 mm 216.0 W/m2
14:39 33.2 °C 3.1 °C 1005.3 hPa Calm     15% 0 mm 930.0 W/m2
14:54 34.3 °C 3 °C 1005 hPa South 16.3 km/h 20.9 km/h 14% 0 mm 900.0 W/m2
15:09 34.1 °C 2.8 °C 1005 hPa Calm   4.8 km/h 14% 0 mm 854.0 W/m2
15:25 34.4 °C 3.1 °C 1004.6 hPa South 3.2 km/h 4.8 km/h 14% 0 mm 830.0 W/m2
15:45 34.4 °C 3.1 °C 1004.6 hPa South 6.4 km/h 12.9 km/h 14% 0 mm 763.0 W/m2
15:50 34.4 °C 2 °C 1004.3 hPa Calm   1.6 km/h 13% 0 mm 752.0 W/m2
16:00 34.7 °C 2.2 °C 1004.3 hPa South 16.3 km/h 17.7 km/h 13% 0 mm 657.0 W/m2
16:10 34.6 °C 2.2 °C 1004.3 hPa South 6.4 km/h 16.1 km/h 13% 0 mm 724.0 W/m2
16:30 34.2 °C 1.9 °C 1004.3 hPa South 7.9 km/h 9.7 km/h 13% 0 mm 148.0 W/m2
16:42 34.2 °C 1.9 °C 1003.9 hPa Calm   9.7 km/h 13% 0 mm 541.0 W/m2
16:50 34.4 °C 2 °C 1003.9 hPa South 13 km/h 14.5 km/h 13% 0 mm 568.0 W/m2
17:00 34.5 °C 1 °C 1003.9 hPa South 14.3 km/h 17.7 km/h 12% 0 mm 512.0 W/m2
17:10 34.5 °C 2.1 °C 1003.9 hPa South 13 km/h 17.7 km/h 13% 0 mm 466.0 W/m2
17:21 34.3 °C 1.9 °C 1003.9 hPa South 9.7 km/h 12.9 km/h 13% 0 mm 178.0 W/m2
17:31 34.2 °C 2.9 °C 1003.6 hPa SE 28.8 km/h 29 km/h 14% 0 mm 390.0 W/m2
17:46 34.3 °C 3 °C 1003.6 hPa SE 19.5 km/h 22.5 km/h 14% 0 mm 353.0 W/m2
17:54 34.2 °C 2.9 °C 1003.6 hPa SSE 14.3 km/h 16.1 km/h 14% 0 mm 341.0 W/m2
17:59 34.2 °C 2.9 °C 1003.6 hPa SE 16.3 km/h 20.9 km/h 14% 0 mm 323.0 W/m2
18:05 34.2 °C 2.9 °C 1003.6 hPa SE 9.7 km/h 20.9 km/h 14% 0 mm 311.0 W/m2
18:11 34.2 °C 2.9 °C 1003.6 hPa SE 17.7 km/h 20.9 km/h 14% 0 mm 262.0 W/m2
18:21 33.9 °C 2.7 °C 1003.9 hPa SE 14.3 km/h 17.7 km/h 14% 0 mm 206.0 W/m2
18:36 32.9 °C 8.4 °C 1003.9 hPa SW 28.8 km/h 33.8 km/h 22% 0 mm 134.0 W/m2
18:56 31.7 °C 8 °C 1004.3 hPa SW 24.1 km/h 33.8 km/h 23% 0 mm 53.0 W/m2
19:06 31.1 °C 8.8 °C 1004.3 hPa SSW 22.7 km/h 33.8 km/h 25% 0 mm 19.0 W/m2
19:17 30.4 °C 8.2 °C 1004.6 hPa SSW 27.4 km/h 33.8 km/h 25% 0 mm 9.0 W/m2
19:33 29.9 °C 8.9 °C 1004.6 hPa South 25.9 km/h 27.4 km/h 27% 0 mm 0.0 W/m2
19:47 29.6 °C 9.7 °C 1005 hPa SSW 16.3 km/h 20.9 km/h 29% 0 mm 0.0 W/m2
19:51 29.3 °C 9.4 °C 1005.3 hPa South 20.9 km/h 25.7 km/h 29% 0 mm 0.0 W/m2
20:12 28.7 °C 9.9 °C 1005.3 hPa South 20.9 km/h 24.1 km/h 31% 0 mm 0.0 W/m2
20:21 28.6 °C 9.8 °C 1005.6 hPa South 13 km/h 25.7 km/h 31% 0 mm 0.0 W/m2
20:32 28.4 °C 10.1 °C 1005.6 hPa South 17.7 km/h 20.9 km/h 32% 0 mm 0.0 W/m2
20:40 28.2 °C 9.9 °C 1005.6 hPa South 25.9 km/h 25.9 km/h 32% 0 mm 0.0 W/m2
20:50 27.8 °C 10.5 °C 1006 hPa SSW 22.7 km/h 27.4 km/h 34% 0 mm 0.0 W/m2
21:01 27.4 °C 9.7 °C 1006 hPa SSW 24.1 km/h 29 km/h 33% 0 mm 0.0 W/m2
21:10 27.2 °C 10 °C 1006.3 hPa South 17.7 km/h 30.6 km/h 34% 0 mm 0.0 W/m2
21:16 27 °C 10.2 °C 1006.3 hPa SSW 16.3 km/h 30.6 km/h 35% 0 mm 0.0 W/m2
21:24 26.8 °C 10.1 °C 1006.7 hPa SSW 19.5 km/h 25.7 km/h 35% 0 mm 0.0 W/m2
Canyon Roadhouse, Fishriver Canyon, Namibia
Compliments of Weather Underground - 2.25 mb